sensor_id;sensor_type;location;lat;lon;timestamp;temperature;humidity
75987;DHT22;74517;44.762;37.698;2023-12-04T00:00:00;14.19;82.91
75987;DHT22;74517;44.762;37.698;2023-12-04T00:01:13;14.19;83.13
75987;DHT22;74517;44.762;37.698;2023-12-04T00:02:18;14.21;83.06
75987;DHT22;74517;44.762;37.698;2023-12-04T00:03:23;14.21;82.94
75987;DHT22;74517;44.762;37.698;2023-12-04T00:04:27;14.20;82.97
75987;DHT22;74517;44.762;37.698;2023-12-04T00:05:31;14.20;82.93
75987;DHT22;74517;44.762;37.698;2023-12-04T00:06:36;14.20;82.90
75987;DHT22;74517;44.762;37.698;2023-12-04T00:07:40;14.21;82.85
75987;DHT22;74517;44.762;37.698;2023-12-04T00:08:44;14.21;82.91
75987;DHT22;74517;44.762;37.698;2023-12-04T00:09:48;14.21;82.90
75987;DHT22;74517;44.762;37.698;2023-12-04T00:10:52;14.20;82.67
75987;DHT22;74517;44.762;37.698;2023-12-04T00:11:58;14.18;83.00
75987;DHT22;74517;44.762;37.698;2023-12-04T00:13:02;14.15;83.05
75987;DHT22;74517;44.762;37.698;2023-12-04T00:14:06;14.17;83.20
75987;DHT22;74517;44.762;37.698;2023-12-04T00:15:11;14.15;83.20
75987;DHT22;74517;44.762;37.698;2023-12-04T00:16:15;14.15;83.07
75987;DHT22;74517;44.762;37.698;2023-12-04T00:17:19;14.18;83.03
75987;DHT22;74517;44.762;37.698;2023-12-04T00:18:24;14.17;83.20
75987;DHT22;74517;44.762;37.698;2023-12-04T00:19:33;14.17;83.03
75987;DHT22;74517;44.762;37.698;2023-12-04T00:20:39;14.20;83.02
75987;DHT22;74517;44.762;37.698;2023-12-04T00:21:44;14.20;82.93
75987;DHT22;74517;44.762;37.698;2023-12-04T00:22:49;14.19;82.94
75987;DHT22;74517;44.762;37.698;2023-12-04T00:23:54;14.20;82.75
75987;DHT22;74517;44.762;37.698;2023-12-04T00:24:58;14.19;82.87
75987;DHT22;74517;44.762;37.698;2023-12-04T00:26:03;14.21;82.68
75987;DHT22;74517;44.762;37.698;2023-12-04T00:27:08;14.22;82.71
75987;DHT22;74517;44.762;37.698;2023-12-04T00:28:13;14.22;82.70
75987;DHT22;74517;44.762;37.698;2023-12-04T00:29:18;14.23;82.67
75987;DHT22;74517;44.762;37.698;2023-12-04T00:30:22;14.21;82.62
75987;DHT22;74517;44.762;37.698;2023-12-04T00:31:28;14.22;82.79
75987;DHT22;74517;44.762;37.698;2023-12-04T00:32:32;14.21;82.75
75987;DHT22;74517;44.762;37.698;2023-12-04T00:33:36;14.20;82.90
75987;DHT22;74517;44.762;37.698;2023-12-04T00:34:41;14.21;82.72
75987;DHT22;74517;44.762;37.698;2023-12-04T00:35:45;14.20;82.57
75987;DHT22;74517;44.762;37.698;2023-12-04T00:36:49;14.18;82.69
75987;DHT22;74517;44.762;37.698;2023-12-04T00:37:53;14.15;82.82
75987;DHT22;74517;44.762;37.698;2023-12-04T00:38:57;14.12;83.04
75987;DHT22;74517;44.762;37.698;2023-12-04T00:40:01;14.09;83.23
75987;DHT22;74517;44.762;37.698;2023-12-04T00:41:06;14.07;83.48
75987;DHT22;74517;44.762;37.698;2023-12-04T00:42:11;14.05;83.63
75987;DHT22;74517;44.762;37.698;2023-12-04T00:43:15;14.04;83.70
75987;DHT22;74517;44.762;37.698;2023-12-04T00:44:20;14.03;83.70
75987;DHT22;74517;44.762;37.698;2023-12-04T00:45:25;14.01;83.76
75987;DHT22;74517;44.762;37.698;2023-12-04T00:46:28;14.00;83.92
75987;DHT22;74517;44.762;37.698;2023-12-04T00:47:32;14.00;84.03
75987;DHT22;74517;44.762;37.698;2023-12-04T00:48:36;13.96;84.00
75987;DHT22;74517;44.762;37.698;2023-12-04T00:49:42;13.97;84.08
75987;DHT22;74517;44.762;37.698;2023-12-04T00:50:46;13.95;84.21
75987;DHT22;74517;44.762;37.698;2023-12-04T00:51:51;13.96;84.26
75987;DHT22;74517;44.762;37.698;2023-12-04T00:52:55;13.93;84.25
75987;DHT22;74517;44.762;37.698;2023-12-04T00:53:59;13.91;84.42
75987;DHT22;74517;44.762;37.698;2023-12-04T00:55:03;13.90;84.51
75987;DHT22;74517;44.762;37.698;2023-12-04T00:56:08;13.90;84.54
75987;DHT22;74517;44.762;37.698;2023-12-04T00:57:13;13.89;84.44
75987;DHT22;74517;44.762;37.698;2023-12-04T00:58:17;13.89;84.60
75987;DHT22;74517;44.762;37.698;2023-12-04T00:59:21;13.89;84.68
75987;DHT22;74517;44.762;37.698;2023-12-04T01:00:25;13.89;84.61
75987;DHT22;74517;44.762;37.698;2023-12-04T01:01:29;13.89;84.65
75987;DHT22;74517;44.762;37.698;2023-12-04T01:02:33;13.85;84.76
75987;DHT22;74517;44.762;37.698;2023-12-04T01:03:38;13.85;84.91
75987;DHT22;74517;44.762;37.698;2023-12-04T01:04:42;13.84;85.01
75987;DHT22;74517;44.762;37.698;2023-12-04T01:05:46;13.83;85.16
75987;DHT22;74517;44.762;37.698;2023-12-04T01:06:51;13.81;85.21
75987;DHT22;74517;44.762;37.698;2023-12-04T01:07:56;13.81;85.32
75987;DHT22;74517;44.762;37.698;2023-12-04T01:09:00;13.78;85.33
75987;DHT22;74517;44.762;37.698;2023-12-04T01:10:05;13.78;85.34
75987;DHT22;74517;44.762;37.698;2023-12-04T01:11:09;13.77;85.38
75987;DHT22;74517;44.762;37.698;2023-12-04T01:12:14;13.77;85.44
75987;DHT22;74517;44.762;37.698;2023-12-04T01:13:18;13.79;85.27
75987;DHT22;74517;44.762;37.698;2023-12-04T01:14:22;13.78;85.22
75987;DHT22;74517;44.762;37.698;2023-12-04T01:15:27;13.77;85.38
75987;DHT22;74517;44.762;37.698;2023-12-04T01:16:31;13.77;85.40
75987;DHT22;74517;44.762;37.698;2023-12-04T01:17:36;13.76;85.38
75987;DHT22;74517;44.762;37.698;2023-12-04T01:18:41;13.79;85.35
75987;DHT22;74517;44.762;37.698;2023-12-04T01:19:45;13.78;85.28
75987;DHT22;74517;44.762;37.698;2023-12-04T01:20:49;13.79;85.23
75987;DHT22;74517;44.762;37.698;2023-12-04T01:21:53;13.79;85.19
75987;DHT22;74517;44.762;37.698;2023-12-04T01:22:58;13.78;85.22
75987;DHT22;74517;44.762;37.698;2023-12-04T01:24:02;13.77;85.03
75987;DHT22;74517;44.762;37.698;2023-12-04T01:25:08;13.75;85.04
75987;DHT22;74517;44.762;37.698;2023-12-04T01:26:13;13.74;85.13
75987;DHT22;74517;44.762;37.698;2023-12-04T01:27:17;13.73;85.22
75987;DHT22;74517;44.762;37.698;2023-12-04T01:28:21;13.71;85.08
75987;DHT22;74517;44.762;37.698;2023-12-04T01:29:25;13.70;85.19
75987;DHT22;74517;44.762;37.698;2023-12-04T01:30:29;13.69;85.32
75987;DHT22;74517;44.762;37.698;2023-12-04T01:31:34;13.69;85.29
75987;DHT22;74517;44.762;37.698;2023-12-04T01:32:38;13.73;85.21
75987;DHT22;74517;44.762;37.698;2023-12-04T01:33:42;13.71;85.18
75987;DHT22;74517;44.762;37.698;2023-12-04T01:34:46;13.73;85.19
75987;DHT22;74517;44.762;37.698;2023-12-04T01:35:50;13.74;85.03
75987;DHT22;74517;44.762;37.698;2023-12-04T01:36:54;13.74;85.10
75987;DHT22;74517;44.762;37.698;2023-12-04T01:37:58;13.73;85.16
75987;DHT22;74517;44.762;37.698;2023-12-04T01:39:02;13.71;85.21
75987;DHT22;74517;44.762;37.698;2023-12-04T01:40:07;13.73;85.25
75987;DHT22;74517;44.762;37.698;2023-12-04T01:41:12;13.71;85.26
75987;DHT22;74517;44.762;37.698;2023-12-04T01:42:16;13.73;85.14
75987;DHT22;74517;44.762;37.698;2023-12-04T01:43:20;13.74;85.11
75987;DHT22;74517;44.762;37.698;2023-12-04T01:44:26;13.76;85.08
75987;DHT22;74517;44.762;37.698;2023-12-04T01:45:30;13.78;84.98
75987;DHT22;74517;44.762;37.698;2023-12-04T01:46:36;13.79;84.95
75987;DHT22;74517;44.762;37.698;2023-12-04T01:47:40;13.79;84.74
75987;DHT22;74517;44.762;37.698;2023-12-04T01:48:45;13.80;84.69
75987;DHT22;74517;44.762;37.698;2023-12-04T01:49:51;13.83;84.61
75987;DHT22;74517;44.762;37.698;2023-12-04T01:50:58;13.83;84.57
75987;DHT22;74517;44.762;37.698;2023-12-04T01:52:05;13.84;84.52
75987;DHT22;74517;44.762;37.698;2023-12-04T01:53:10;13.83;84.55
75987;DHT22;74517;44.762;37.698;2023-12-04T01:54:15;13.86;84.27
75987;DHT22;74517;44.762;37.698;2023-12-04T01:55:21;13.86;84.49
75987;DHT22;74517;44.762;37.698;2023-12-04T01:56:26;13.86;84.64
75987;DHT22;74517;44.762;37.698;2023-12-04T01:57:31;13.88;84.23
75987;DHT22;74517;44.762;37.698;2023-12-04T01:58:36;13.90;84.19
75987;DHT22;74517;44.762;37.698;2023-12-04T01:59:41;13.88;84.13
75987;DHT22;74517;44.762;37.698;2023-12-04T02:00:45;13.90;84.11
75987;DHT22;74517;44.762;37.698;2023-12-04T02:01:50;13.89;84.16
75987;DHT22;74517;44.762;37.698;2023-12-04T02:02:56;13.91;84.23
75987;DHT22;74517;44.762;37.698;2023-12-04T02:04:01;13.90;84.10
75987;DHT22;74517;44.762;37.698;2023-12-04T02:05:08;13.93;84.10
75987;DHT22;74517;44.762;37.698;2023-12-04T02:06:13;13.95;84.09
75987;DHT22;74517;44.762;37.698;2023-12-04T02:07:17;13.94;83.78
75987;DHT22;74517;44.762;37.698;2023-12-04T02:08:21;13.95;83.74
75987;DHT22;74517;44.762;37.698;2023-12-04T02:09:26;13.93;83.69
75987;DHT22;74517;44.762;37.698;2023-12-04T02:10:30;13.92;83.74
75987;DHT22;74517;44.762;37.698;2023-12-04T02:11:34;13.90;83.80
75987;DHT22;74517;44.762;37.698;2023-12-04T02:12:38;13.90;83.90
75987;DHT22;74517;44.762;37.698;2023-12-04T02:13:42;13.90;84.08
75987;DHT22;74517;44.762;37.698;2023-12-04T02:14:46;13.90;84.03
75987;DHT22;74517;44.762;37.698;2023-12-04T02:15:53;13.92;83.90
75987;DHT22;74517;44.762;37.698;2023-12-04T02:17:00;13.93;83.94
75987;DHT22;74517;44.762;37.698;2023-12-04T02:18:06;13.95;83.94
75987;DHT22;74517;44.762;37.698;2023-12-04T02:19:12;13.97;84.00
75987;DHT22;74517;44.762;37.698;2023-12-04T02:20:17;13.99;83.75
75987;DHT22;74517;44.762;37.698;2023-12-04T02:21:22;14.00;83.74
75987;DHT22;74517;44.762;37.698;2023-12-04T02:22:26;14.00;83.73
75987;DHT22;74517;44.762;37.698;2023-12-04T02:23:32;14.03;83.68
75987;DHT22;74517;44.762;37.698;2023-12-04T02:24:38;14.04;83.55
75987;DHT22;74517;44.762;37.698;2023-12-04T02:25:43;14.06;83.61
75987;DHT22;74517;44.762;37.698;2023-12-04T02:26:52;14.06;83.34
75987;DHT22;74517;44.762;37.698;2023-12-04T02:28:01;14.08;83.48
75987;DHT22;74517;44.762;37.698;2023-12-04T02:29:09;14.07;83.42
75987;DHT22;74517;44.762;37.698;2023-12-04T02:30:18;14.06;83.45
75987;DHT22;74517;44.762;37.698;2023-12-04T02:31:24;14.05;83.30
75987;DHT22;74517;44.762;37.698;2023-12-04T02:32:31;14.03;83.40
75987;DHT22;74517;44.762;37.698;2023-12-04T02:33:39;14.00;83.50
75987;DHT22;74517;44.762;37.698;2023-12-04T02:34:44;13.98;83.55
75987;DHT22;74517;44.762;37.698;2023-12-04T02:35:51;13.96;83.61
75987;DHT22;74517;44.762;37.698;2023-12-04T02:36:58;13.96;83.52
75987;DHT22;74517;44.762;37.698;2023-12-04T02:38:04;13.93;83.58
75987;DHT22;74517;44.762;37.698;2023-12-04T02:39:09;13.91;83.77
75987;DHT22;74517;44.762;37.698;2023-12-04T02:40:14;13.89;83.83
75987;DHT22;74517;44.762;37.698;2023-12-04T02:41:19;13.90;83.92
75987;DHT22;74517;44.762;37.698;2023-12-04T02:42:24;13.89;83.90
75987;DHT22;74517;44.762;37.698;2023-12-04T02:43:30;13.89;83.97
75987;DHT22;74517;44.762;37.698;2023-12-04T02:44:35;13.91;83.87
75987;DHT22;74517;44.762;37.698;2023-12-04T02:45:39;13.92;83.94
75987;DHT22;74517;44.762;37.698;2023-12-04T02:46:43;13.91;84.00
75987;DHT22;74517;44.762;37.698;2023-12-04T02:47:48;13.92;83.90
75987;DHT22;74517;44.762;37.698;2023-12-04T02:48:52;13.93;83.87
75987;DHT22;74517;44.762;37.698;2023-12-04T02:49:57;13.94;83.78
75987;DHT22;74517;44.762;37.698;2023-12-04T02:51:03;13.95;83.76
75987;DHT22;74517;44.762;37.698;2023-12-04T02:52:06;13.95;83.77
75987;DHT22;74517;44.762;37.698;2023-12-04T02:53:10;13.96;83.80
75987;DHT22;74517;44.762;37.698;2023-12-04T02:54:14;13.97;83.88
75987;DHT22;74517;44.762;37.698;2023-12-04T02:55:19;13.95;83.94
75987;DHT22;74517;44.762;37.698;2023-12-04T02:56:23;13.96;83.96
75987;DHT22;74517;44.762;37.698;2023-12-04T02:57:27;13.95;83.91
75987;DHT22;74517;44.762;37.698;2023-12-04T02:58:31;13.93;83.87
75987;DHT22;74517;44.762;37.698;2023-12-04T02:59:38;13.94;83.93
75987;DHT22;74517;44.762;37.698;2023-12-04T03:00:43;13.93;83.97
75987;DHT22;74517;44.762;37.698;2023-12-04T03:01:47;13.92;83.97
75987;DHT22;74517;44.762;37.698;2023-12-04T03:02:51;13.92;84.00
75987;DHT22;74517;44.762;37.698;2023-12-04T03:03:55;13.92;84.00
75987;DHT22;74517;44.762;37.698;2023-12-04T03:04:59;13.92;84.06
75987;DHT22;74517;44.762;37.698;2023-12-04T03:06:05;13.93;83.94
75987;DHT22;74517;44.762;37.698;2023-12-04T03:07:09;13.92;84.00
75987;DHT22;74517;44.762;37.698;2023-12-04T03:08:13;13.93;84.03
75987;DHT22;74517;44.762;37.698;2023-12-04T03:09:18;13.94;83.95
75987;DHT22;74517;44.762;37.698;2023-12-04T03:10:22;13.95;83.92
75987;DHT22;74517;44.762;37.698;2023-12-04T03:11:26;13.94;83.86
75987;DHT22;74517;44.762;37.698;2023-12-04T03:12:31;13.96;83.81
75987;DHT22;74517;44.762;37.698;2023-12-04T03:13:35;13.97;83.72
75987;DHT22;74517;44.762;37.698;2023-12-04T03:14:39;13.96;83.81
75987;DHT22;74517;44.762;37.698;2023-12-04T03:15:43;13.98;83.85
75987;DHT22;74517;44.762;37.698;2023-12-04T03:16:47;13.96;83.68
75987;DHT22;74517;44.762;37.698;2023-12-04T03:17:52;13.99;83.50
75987;DHT22;74517;44.762;37.698;2023-12-04T03:18:57;13.99;83.51
75987;DHT22;74517;44.762;37.698;2023-12-04T03:20:02;13.99;83.63
75987;DHT22;74517;44.762;37.698;2023-12-04T03:21:07;14.00;83.46
75987;DHT22;74517;44.762;37.698;2023-12-04T03:22:12;13.98;83.58
75987;DHT22;74517;44.762;37.698;2023-12-04T03:23:17;13.98;83.55
75987;DHT22;74517;44.762;37.698;2023-12-04T03:24:22;13.97;83.61
75987;DHT22;74517;44.762;37.698;2023-12-04T03:25:26;13.97;83.76
75987;DHT22;74517;44.762;37.698;2023-12-04T03:26:32;13.97;83.74
75987;DHT22;74517;44.762;37.698;2023-12-04T03:27:36;13.99;83.65
75987;DHT22;74517;44.762;37.698;2023-12-04T03:28:40;13.99;83.71
75987;DHT22;74517;44.762;37.698;2023-12-04T03:29:45;14.00;83.54
75987;DHT22;74517;44.762;37.698;2023-12-04T03:30:49;14.03;83.49
75987;DHT22;74517;44.762;37.698;2023-12-04T03:31:54;14.03;83.55
75987;DHT22;74517;44.762;37.698;2023-12-04T03:32:58;14.04;83.53
75987;DHT22;74517;44.762;37.698;2023-12-04T03:34:02;14.05;83.36
75987;DHT22;74517;44.762;37.698;2023-12-04T03:35:09;14.06;83.47
75987;DHT22;74517;44.762;37.698;2023-12-04T03:36:14;14.08;83.29
75987;DHT22;74517;44.762;37.698;2023-12-04T03:37:18;14.10;83.12
75987;DHT22;74517;44.762;37.698;2023-12-04T03:38:22;14.11;83.13
75987;DHT22;74517;44.762;37.698;2023-12-04T03:39:26;14.11;83.03
75987;DHT22;74517;44.762;37.698;2023-12-04T03:40:31;14.13;82.96
75987;DHT22;74517;44.762;37.698;2023-12-04T03:41:37;14.12;83.01
75987;DHT22;74517;44.762;37.698;2023-12-04T03:42:41;14.12;82.95
75987;DHT22;74517;44.762;37.698;2023-12-04T03:43:45;14.11;83.01
75987;DHT22;74517;44.762;37.698;2023-12-04T03:44:49;14.11;82.98
75987;DHT22;74517;44.762;37.698;2023-12-04T03:45:53;14.12;82.91
75987;DHT22;74517;44.762;37.698;2023-12-04T03:46:58;14.11;83.00
75987;DHT22;74517;44.762;37.698;2023-12-04T03:48:02;14.11;82.99
75987;DHT22;74517;44.762;37.698;2023-12-04T03:49:07;14.10;82.90
75987;DHT22;74517;44.762;37.698;2023-12-04T03:50:11;14.10;83.00
75987;DHT22;74517;44.762;37.698;2023-12-04T03:51:15;14.09;82.97
75987;DHT22;74517;44.762;37.698;2023-12-04T03:52:20;14.08;83.10
75987;DHT22;74517;44.762;37.698;2023-12-04T03:53:24;14.06;83.16
75987;DHT22;74517;44.762;37.698;2023-12-04T03:54:30;14.05;83.29
75987;DHT22;74517;44.762;37.698;2023-12-04T03:55:34;14.04;83.44
75987;DHT22;74517;44.762;37.698;2023-12-04T03:56:39;14.03;83.50
75987;DHT22;74517;44.762;37.698;2023-12-04T03:57:44;13.99;83.67
75987;DHT22;74517;44.762;37.698;2023-12-04T03:58:49;13.97;83.83
75987;DHT22;74517;44.762;37.698;2023-12-04T03:59:53;13.97;83.98
75987;DHT22;74517;44.762;37.698;2023-12-04T04:00:57;13.93;84.00
75987;DHT22;74517;44.762;37.698;2023-12-04T04:02:02;13.92;84.11
75987;DHT22;74517;44.762;37.698;2023-12-04T04:03:07;13.89;84.32
75987;DHT22;74517;44.762;37.698;2023-12-04T04:04:12;13.86;84.41
75987;DHT22;74517;44.762;37.698;2023-12-04T04:05:17;13.85;84.58
75987;DHT22;74517;44.762;37.698;2023-12-04T04:06:22;13.85;84.67
75987;DHT22;74517;44.762;37.698;2023-12-04T04:07:27;13.83;84.75
75987;DHT22;74517;44.762;37.698;2023-12-04T04:08:31;13.83;84.81
75987;DHT22;74517;44.762;37.698;2023-12-04T04:09:35;13.82;84.93
75987;DHT22;74517;44.762;37.698;2023-12-04T04:10:40;13.83;84.99
75987;DHT22;74517;44.762;37.698;2023-12-04T04:11:44;13.85;84.86
75987;DHT22;74517;44.762;37.698;2023-12-04T04:12:48;13.86;84.97
75987;DHT22;74517;44.762;37.698;2023-12-04T04:13:52;13.86;84.90
75987;DHT22;74517;44.762;37.698;2023-12-04T04:14:57;13.86;84.92
75987;DHT22;74517;44.762;37.698;2023-12-04T04:16:01;13.89;84.87
75987;DHT22;74517;44.762;37.698;2023-12-04T04:17:05;13.90;84.84
75987;DHT22;74517;44.762;37.698;2023-12-04T04:18:10;13.93;84.62
75987;DHT22;74517;44.762;37.698;2023-12-04T04:19:15;13.94;84.63
75987;DHT22;74517;44.762;37.698;2023-12-04T04:20:19;13.95;84.73
75987;DHT22;74517;44.762;37.698;2023-12-04T04:21:24;13.94;84.76
75987;DHT22;74517;44.762;37.698;2023-12-04T04:22:28;13.93;84.52
75987;DHT22;74517;44.762;37.698;2023-12-04T04:23:32;13.92;84.54
75987;DHT22;74517;44.762;37.698;2023-12-04T04:24:36;13.95;84.41
75987;DHT22;74517;44.762;37.698;2023-12-04T04:25:40;13.95;84.36
75987;DHT22;74517;44.762;37.698;2023-12-04T04:26:44;13.96;84.39
75987;DHT22;74517;44.762;37.698;2023-12-04T04:27:48;13.98;84.55
75987;DHT22;74517;44.762;37.698;2023-12-04T04:28:51;13.97;84.52
75987;DHT22;74517;44.762;37.698;2023-12-04T04:29:55;13.97;84.61
75987;DHT22;74517;44.762;37.698;2023-12-04T04:30:59;13.95;84.77
75987;DHT22;74517;44.762;37.698;2023-12-04T04:32:04;13.94;84.84
75987;DHT22;74517;44.762;37.698;2023-12-04T04:33:09;13.94;84.80
75987;DHT22;74517;44.762;37.698;2023-12-04T04:34:13;13.96;84.81
75987;DHT22;74517;44.762;37.698;2023-12-04T04:35:17;13.95;84.82
75987;DHT22;74517;44.762;37.698;2023-12-04T04:36:21;13.94;84.80
75987;DHT22;74517;44.762;37.698;2023-12-04T04:37:26;13.91;84.84
75987;DHT22;74517;44.762;37.698;2023-12-04T04:38:30;13.90;84.92
75987;DHT22;74517;44.762;37.698;2023-12-04T04:39:34;13.91;85.00
75987;DHT22;74517;44.762;37.698;2023-12-04T04:40:38;13.89;85.10
75987;DHT22;74517;44.762;37.698;2023-12-04T04:41:46;13.92;85.08
75987;DHT22;74517;44.762;37.698;2023-12-04T04:42:50;13.92;85.03
75987;DHT22;74517;44.762;37.698;2023-12-04T04:43:55;13.90;84.94
75987;DHT22;74517;44.762;37.698;2023-12-04T04:45:00;13.89;84.39
75987;DHT22;74517;44.762;37.698;2023-12-04T04:46:04;13.85;83.37
75987;DHT22;74517;44.762;37.698;2023-12-04T04:47:09;13.77;82.26
75987;DHT22;74517;44.762;37.698;2023-12-04T04:48:14;13.69;81.90
75987;DHT22;74517;44.762;37.698;2023-12-04T04:49:18;13.60;81.49
75987;DHT22;74517;44.762;37.698;2023-12-04T04:50:22;13.52;81.46
75987;DHT22;74517;44.762;37.698;2023-12-04T04:51:28;13.44;81.62
75987;DHT22;74517;44.762;37.698;2023-12-04T04:52:33;13.36;81.60
75987;DHT22;74517;44.762;37.698;2023-12-04T04:53:38;13.29;81.72
75987;DHT22;74517;44.762;37.698;2023-12-04T04:54:42;13.26;81.79
75987;DHT22;74517;44.762;37.698;2023-12-04T04:55:46;13.16;81.43
75987;DHT22;74517;44.762;37.698;2023-12-04T04:56:50;13.09;81.33
75987;DHT22;74517;44.762;37.698;2023-12-04T04:57:55;13.02;81.22
75987;DHT22;74517;44.762;37.698;2023-12-04T04:58:59;12.93;81.05
75987;DHT22;74517;44.762;37.698;2023-12-04T05:00:03;12.86;81.10
75987;DHT22;74517;44.762;37.698;2023-12-04T05:01:08;12.81;81.09
75987;DHT22;74517;44.762;37.698;2023-12-04T05:02:13;12.76;81.36
75987;DHT22;74517;44.762;37.698;2023-12-04T05:03:17;12.72;81.18
75987;DHT22;74517;44.762;37.698;2023-12-04T05:04:22;12.67;81.67
75987;DHT22;74517;44.762;37.698;2023-12-04T05:05:26;12.63;81.80
75987;DHT22;74517;44.762;37.698;2023-12-04T05:06:31;12.62;81.72
75987;DHT22;74517;44.762;37.698;2023-12-04T05:07:35;12.60;81.76
75987;DHT22;74517;44.762;37.698;2023-12-04T05:08:39;12.59;81.92
75987;DHT22;74517;44.762;37.698;2023-12-04T05:09:43;12.58;82.01
75987;DHT22;74517;44.762;37.698;2023-12-04T05:10:47;12.55;81.98
75987;DHT22;74517;44.762;37.698;2023-12-04T05:11:52;12.52;82.04
75987;DHT22;74517;44.762;37.698;2023-12-04T05:12:56;12.47;81.78
75987;DHT22;74517;44.762;37.698;2023-12-04T05:14:01;12.45;81.65
75987;DHT22;74517;44.762;37.698;2023-12-04T05:15:06;12.38;81.62
75987;DHT22;74517;44.762;37.698;2023-12-04T05:16:10;12.37;81.78
75987;DHT22;74517;44.762;37.698;2023-12-04T05:17:14;12.32;81.65
75987;DHT22;74517;44.762;37.698;2023-12-04T05:18:18;12.29;81.84
75987;DHT22;74517;44.762;37.698;2023-12-04T05:19:23;12.26;81.77
75987;DHT22;74517;44.762;37.698;2023-12-04T05:20:28;12.23;81.91
75987;DHT22;74517;44.762;37.698;2023-12-04T05:21:32;12.21;82.20
75987;DHT22;74517;44.762;37.698;2023-12-04T05:22:36;12.20;82.13
75987;DHT22;74517;44.762;37.698;2023-12-04T05:23:40;12.17;82.23
75987;DHT22;74517;44.762;37.698;2023-12-04T05:24:46;12.17;82.19
75987;DHT22;74517;44.762;37.698;2023-12-04T05:25:50;12.15;82.23
75987;DHT22;74517;44.762;37.698;2023-12-04T05:26:55;12.14;82.17
75987;DHT22;74517;44.762;37.698;2023-12-04T05:27:58;12.15;82.28
75987;DHT22;74517;44.762;37.698;2023-12-04T05:29:02;12.14;82.40
75987;DHT22;74517;44.762;37.698;2023-12-04T05:30:07;12.14;82.45
75987;DHT22;74517;44.762;37.698;2023-12-04T05:31:11;12.12;82.29
75987;DHT22;74517;44.762;37.698;2023-12-04T05:32:15;12.10;82.52
75987;DHT22;74517;44.762;37.698;2023-12-04T05:33:20;12.10;82.65
75987;DHT22;74517;44.762;37.698;2023-12-04T05:34:24;12.10;82.68
75987;DHT22;74517;44.762;37.698;2023-12-04T05:35:28;12.06;82.66
75987;DHT22;74517;44.762;37.698;2023-12-04T05:36:32;12.03;82.67
75987;DHT22;74517;44.762;37.698;2023-12-04T05:37:36;12.00;82.87
75987;DHT22;74517;44.762;37.698;2023-12-04T05:38:41;12.01;82.90
75987;DHT22;74517;44.762;37.698;2023-12-04T05:39:46;11.99;83.15
75987;DHT22;74517;44.762;37.698;2023-12-04T05:40:52;11.98;83.18
75987;DHT22;74517;44.762;37.698;2023-12-04T05:41:56;11.99;83.24
75987;DHT22;74517;44.762;37.698;2023-12-04T05:43:00;11.98;83.35
75987;DHT22;74517;44.762;37.698;2023-12-04T05:44:04;11.99;83.17
75987;DHT22;74517;44.762;37.698;2023-12-04T05:45:09;11.97;83.16
75987;DHT22;74517;44.762;37.698;2023-12-04T05:46:13;11.98;83.11
75987;DHT22;74517;44.762;37.698;2023-12-04T05:47:17;11.99;83.15
75987;DHT22;74517;44.762;37.698;2023-12-04T05:48:21;11.97;82.94
75987;DHT22;74517;44.762;37.698;2023-12-04T05:49:25;11.99;83.12
75987;DHT22;74517;44.762;37.698;2023-12-04T05:50:31;11.94;82.84
75987;DHT22;74517;44.762;37.698;2023-12-04T05:51:36;11.96;82.74
75987;DHT22;74517;44.762;37.698;2023-12-04T05:52:40;11.92;82.48
75987;DHT22;74517;44.762;37.698;2023-12-04T05:53:44;11.88;82.23
75987;DHT22;74517;44.762;37.698;2023-12-04T05:54:48;11.84;82.22
75987;DHT22;74517;44.762;37.698;2023-12-04T05:55:52;11.78;82.07
75987;DHT22;74517;44.762;37.698;2023-12-04T05:56:56;11.73;82.03
75987;DHT22;74517;44.762;37.698;2023-12-04T05:58:00;11.69;82.05
75987;DHT22;74517;44.762;37.698;2023-12-04T05:59:05;11.64;81.88
75987;DHT22;74517;44.762;37.698;2023-12-04T06:00:10;11.62;82.08
75987;DHT22;74517;44.762;37.698;2023-12-04T06:01:17;11.57;82.10
75987;DHT22;74517;44.762;37.698;2023-12-04T06:02:21;11.51;81.94
75987;DHT22;74517;44.762;37.698;2023-12-04T06:03:25;11.45;81.78
75987;DHT22;74517;44.762;37.698;2023-12-04T06:04:29;11.41;81.82
75987;DHT22;74517;44.762;37.698;2023-12-04T06:05:34;11.39;82.23
75987;DHT22;74517;44.762;37.698;2023-12-04T06:06:38;11.37;82.38
75987;DHT22;74517;44.762;37.698;2023-12-04T06:07:43;11.34;82.58
75987;DHT22;74517;44.762;37.698;2023-12-04T06:08:48;11.32;82.55
75987;DHT22;74517;44.762;37.698;2023-12-04T06:09:52;11.29;82.66
75987;DHT22;74517;44.762;37.698;2023-12-04T06:10:56;11.27;82.73
75987;DHT22;74517;44.762;37.698;2023-12-04T06:12:01;11.24;82.77
75987;DHT22;74517;44.762;37.698;2023-12-04T06:13:12;11.20;83.00
75987;DHT22;74517;44.762;37.698;2023-12-04T06:14:17;11.18;83.29
75987;DHT22;74517;44.762;37.698;2023-12-04T06:15:21;11.19;83.39
75987;DHT22;74517;44.762;37.698;2023-12-04T06:16:25;11.20;83.37
75987;DHT22;74517;44.762;37.698;2023-12-04T06:17:30;11.23;83.33
75987;DHT22;74517;44.762;37.698;2023-12-04T06:18:34;11.20;83.30
75987;DHT22;74517;44.762;37.698;2023-12-04T06:19:38;11.20;83.44
75987;DHT22;74517;44.762;37.698;2023-12-04T06:20:42;11.20;83.55
75987;DHT22;74517;44.762;37.698;2023-12-04T06:21:46;11.23;83.60
75987;DHT22;74517;44.762;37.698;2023-12-04T06:22:50;11.24;83.42
75987;DHT22;74517;44.762;37.698;2023-12-04T06:23:56;11.27;83.32
75987;DHT22;74517;44.762;37.698;2023-12-04T06:25:01;11.26;83.16
75987;DHT22;74517;44.762;37.698;2023-12-04T06:26:07;11.25;82.78
75987;DHT22;74517;44.762;37.698;2023-12-04T06:27:16;11.24;82.55
75987;DHT22;74517;44.762;37.698;2023-12-04T06:28:21;11.24;82.49
75987;DHT22;74517;44.762;37.698;2023-12-04T06:29:27;11.22;82.35
75987;DHT22;74517;44.762;37.698;2023-12-04T06:30:33;11.22;82.34
75987;DHT22;74517;44.762;37.698;2023-12-04T06:31:38;11.15;81.79
75987;DHT22;74517;44.762;37.698;2023-12-04T06:32:44;11.12;81.88
75987;DHT22;74517;44.762;37.698;2023-12-04T06:33:49;11.07;81.92
75987;DHT22;74517;44.762;37.698;2023-12-04T06:34:54;11.07;82.28
75987;DHT22;74517;44.762;37.698;2023-12-04T06:36:00;11.10;82.52
75987;DHT22;74517;44.762;37.698;2023-12-04T06:37:10;11.12;82.58
75987;DHT22;74517;44.762;37.698;2023-12-04T06:38:16;11.12;82.27
75987;DHT22;74517;44.762;37.698;2023-12-04T06:39:24;11.16;82.26
75987;DHT22;74517;44.762;37.698;2023-12-04T06:40:30;11.14;81.18
75987;DHT22;74517;44.762;37.698;2023-12-04T06:41:36;11.14;80.92